createdAt,value
2018-06-21T00:00:42.836Z,5.80
2018-06-21T00:03:10.016Z,6.73
2018-06-21T00:05:37.202Z,6.83
2018-06-21T00:08:04.335Z,6.77
2018-06-21T00:10:31.466Z,6.90
2018-06-21T00:12:58.630Z,6.70
2018-06-21T00:15:25.789Z,6.23
2018-06-21T00:17:52.931Z,6.10
2018-06-21T00:20:20.080Z,6.80
2018-06-21T00:22:47.202Z,5.70
2018-06-21T00:25:14.354Z,6.50
2018-06-21T00:27:41.734Z,7.10
2018-06-21T00:30:08.856Z,6.37
2018-06-21T00:32:35.980Z,6.20
2018-06-21T00:35:03.135Z,6.60
2018-06-21T00:37:30.266Z,6.67
2018-06-21T00:39:57.407Z,6.40
2018-06-21T00:42:24.571Z,6.60
2018-06-21T00:44:51.744Z,5.60
2018-06-21T00:47:18.866Z,6.13
2018-06-21T00:49:46.006Z,6.30
2018-06-21T00:52:13.110Z,6.30
2018-06-21T00:54:40.239Z,6.40
2018-06-21T00:57:07.329Z,5.70
2018-06-21T00:59:34.459Z,6.00
2018-06-21T01:02:01.603Z,6.87
2018-06-21T01:04:28.730Z,6.13
2018-06-21T01:06:55.826Z,6.00
2018-06-21T01:09:22.950Z,6.80
2018-06-21T01:11:50.106Z,6.53
2018-06-21T01:14:17.239Z,6.93
2018-06-21T01:16:44.345Z,6.03
2018-06-21T01:19:11.474Z,6.10
2018-06-21T01:21:38.626Z,6.30
2018-06-21T01:24:05.786Z,7.10
2018-06-21T01:26:32.902Z,6.30
2018-06-21T01:28:59.998Z,6.87
2018-06-21T01:31:27.146Z,5.80
2018-06-21T01:36:33.132Z,6.83
2018-06-21T01:39:00.279Z,6.40
2018-06-21T01:41:27.396Z,6.90
2018-06-21T01:43:54.575Z,7.03
2018-06-21T01:46:21.749Z,7.43
2018-06-21T01:48:48.915Z,7.13
2018-06-21T01:51:16.056Z,7.63
2018-06-21T01:53:43.184Z,6.70
2018-06-21T01:56:10.313Z,7.50
2018-06-21T01:58:37.458Z,6.90
2018-06-21T02:01:04.569Z,7.97
2018-06-21T02:03:31.710Z,6.97
2018-06-21T02:05:58.856Z,6.97
2018-06-21T02:08:26.025Z,6.87
2018-06-21T02:10:53.216Z,7.20
2018-06-21T02:13:20.361Z,7.40
2018-06-21T02:15:47.484Z,7.73
2018-06-21T02:18:14.616Z,8.23
2018-06-21T02:20:41.803Z,9.57
2018-06-21T02:23:08.940Z,7.20
2018-06-21T02:25:36.096Z,7.27
2018-06-21T02:28:03.333Z,8.27
2018-06-21T02:30:30.474Z,8.57
2018-06-21T02:32:57.619Z,9.00
2018-06-21T02:35:24.791Z,8.53
2018-06-21T02:37:51.942Z,8.77
2018-06-21T02:40:19.159Z,8.30
2018-06-21T02:42:46.296Z,7.63
2018-06-21T02:45:13.447Z,9.17
2018-06-21T02:47:40.619Z,8.30
2018-06-21T02:50:07.797Z,8.10
2018-06-21T02:52:34.911Z,8.77
2018-06-21T02:55:02.067Z,8.83
2018-06-21T02:57:29.257Z,8.20
2018-06-21T02:59:56.371Z,8.30
2018-06-21T03:02:23.552Z,7.90
2018-06-21T03:04:50.701Z,9.50
2018-06-21T03:07:17.828Z,9.17
2018-06-21T03:09:44.984Z,8.63
2018-06-21T03:12:17.802Z,8.20
2018-06-21T03:14:44.927Z,8.20
2018-06-21T03:17:12.071Z,8.60
2018-06-21T03:19:39.224Z,8.80
2018-06-21T03:22:06.414Z,8.80
2018-06-21T03:24:33.516Z,8.73
2018-06-21T03:27:00.684Z,8.37
2018-06-21T03:29:27.838Z,9.33
2018-06-21T03:31:55.028Z,8.27
2018-06-21T03:34:22.227Z,8.97
2018-06-21T03:36:49.327Z,8.60
2018-06-21T03:39:16.476Z,8.70
2018-06-21T03:41:43.589Z,8.80
2018-06-21T03:44:10.701Z,9.60
2018-06-21T03:46:37.839Z,8.77
2018-06-21T03:49:04.960Z,8.50
2018-06-21T03:51:32.115Z,8.77
2018-06-21T03:53:59.219Z,8.60
2018-06-21T03:56:26.334Z,9.13
2018-06-21T03:58:53.540Z,9.17
2018-06-21T04:01:20.686Z,9.70
2018-06-21T04:03:47.847Z,9.40
2018-06-21T04:06:14.976Z,10.20
2018-06-21T04:08:42.129Z,10.20
2018-06-21T04:11:09.315Z,9.00
2018-06-21T04:13:36.464Z,9.17
2018-06-21T04:16:03.616Z,10.93
2018-06-21T04:18:34.050Z,8.67
2018-06-21T04:21:01.200Z,12.43
2018-06-21T04:23:28.302Z,10.27
2018-06-21T04:25:55.473Z,10.70
2018-06-21T04:28:22.587Z,9.00
2018-06-21T04:30:49.723Z,11.30
2018-06-21T04:33:16.850Z,9.67
2018-06-21T04:35:43.978Z,10.73
2018-06-21T04:38:11.116Z,11.70
2018-06-21T04:40:38.224Z,10.47
2018-06-21T04:43:05.375Z,10.67
2018-06-21T04:45:32.507Z,10.70
2018-06-21T04:47:59.659Z,10.43
2018-06-21T04:50:26.774Z,11.40
2018-06-21T04:52:53.936Z,10.73
2018-06-21T04:55:21.101Z,10.17
2018-06-21T04:57:48.239Z,10.80
2018-06-21T05:00:15.431Z,10.20
2018-06-21T05:02:42.616Z,10.77
2018-06-21T05:05:09.787Z,9.80
2018-06-21T05:07:36.890Z,9.37
2018-06-21T05:10:04.078Z,10.50
2018-06-21T05:12:31.215Z,10.23
2018-06-21T05:14:58.455Z,10.23
2018-06-21T05:17:25.595Z,9.50
2018-06-21T05:19:52.779Z,11.40
2018-06-21T05:22:19.943Z,10.47
2018-06-21T05:24:47.043Z,10.33
2018-06-21T05:27:14.170Z,8.73
2018-06-21T05:29:41.273Z,9.80
2018-06-21T05:32:08.485Z,9.77
2018-06-21T05:34:35.574Z,8.97
2018-06-21T05:37:02.723Z,10.30
2018-06-21T05:39:29.856Z,10.00
2018-06-21T05:41:56.963Z,9.40
2018-06-21T05:44:24.100Z,9.10
2018-06-21T05:46:51.298Z,8.80
2018-06-21T05:49:18.424Z,9.90
2018-06-21T05:51:45.588Z,7.87
2018-06-21T05:54:12.727Z,7.73
2018-06-21T05:56:39.910Z,8.70
2018-06-21T05:59:07.085Z,8.50
2018-06-21T06:01:34.210Z,9.00
2018-06-21T06:04:01.383Z,8.20
2018-06-21T06:06:28.615Z,8.33
2018-06-21T06:08:55.795Z,8.13
2018-06-21T06:11:23.037Z,7.53
2018-06-21T06:13:50.198Z,9.03
2018-06-21T06:16:17.324Z,8.40
2018-06-21T06:18:44.559Z,7.50
2018-06-21T06:21:11.751Z,8.07
2018-06-21T06:23:38.904Z,8.53
2018-06-21T06:26:06.055Z,7.77
2018-06-21T06:28:33.190Z,7.70
2018-06-21T06:31:00.332Z,7.20
2018-06-21T06:33:27.458Z,7.80
2018-06-21T06:35:55.756Z,7.30
2018-06-21T06:38:22.956Z,7.60
2018-06-21T06:40:50.096Z,7.20
2018-06-21T06:43:17.203Z,6.80
2018-06-21T06:45:44.372Z,8.13
2018-06-21T06:48:11.503Z,7.33
2018-06-21T06:50:38.636Z,7.00
2018-06-21T06:53:05.774Z,7.77
2018-06-21T06:55:32.923Z,6.50
2018-06-21T06:58:00.049Z,7.33
2018-06-21T07:00:27.240Z,7.00
2018-06-21T07:02:54.408Z,6.57
2018-06-21T07:05:21.715Z,7.10
2018-06-21T07:07:48.840Z,5.80
2018-06-21T07:10:16.004Z,6.03
2018-06-21T07:12:43.098Z,5.60
2018-06-21T07:15:10.216Z,5.50
2018-06-21T07:17:37.403Z,5.93
2018-06-21T07:20:04.605Z,5.87
2018-06-21T07:22:31.752Z,5.50
2018-06-21T07:24:58.864Z,5.83
2018-06-21T07:27:26.029Z,5.60
2018-06-21T07:29:53.263Z,5.40
2018-06-21T07:32:20.436Z,4.50
2018-06-21T07:34:47.542Z,4.60
2018-06-21T07:37:14.636Z,4.87
2018-06-21T07:39:41.774Z,4.90
2018-06-21T07:42:08.949Z,4.57
2018-06-21T07:44:36.107Z,5.50
2018-06-21T07:47:03.263Z,4.80
2018-06-21T07:49:30.366Z,5.27
2018-06-21T07:51:57.515Z,5.00
2018-06-21T07:54:24.711Z,4.60
2018-06-21T07:56:51.831Z,4.73
2018-06-21T07:59:18.984Z,4.97
2018-06-21T08:01:46.093Z,4.70
2018-06-21T08:04:13.219Z,4.83
2018-06-21T08:06:40.439Z,4.90
2018-06-21T08:09:07.946Z,4.60
2018-06-21T08:11:35.084Z,5.10
2018-06-21T08:14:02.193Z,4.17
2018-06-21T08:16:29.355Z,4.57
2018-06-21T08:18:56.488Z,4.97
2018-06-21T08:21:23.671Z,5.20
2018-06-21T08:23:50.796Z,5.13
2018-06-21T08:26:17.951Z,4.43
2018-06-21T08:28:45.063Z,4.60
2018-06-21T08:31:12.315Z,4.80
2018-06-21T08:33:39.432Z,5.53
2018-06-21T08:36:06.561Z,5.43
2018-06-21T08:38:33.723Z,5.23
2018-06-21T08:41:00.843Z,5.03
2018-06-21T08:43:27.972Z,4.73
2018-06-21T08:45:55.213Z,5.33
2018-06-21T08:48:22.476Z,4.87
2018-06-21T08:50:49.609Z,5.00
2018-06-21T08:53:16.835Z,5.53
2018-06-21T08:55:43.971Z,4.70
2018-06-21T08:58:11.152Z,4.97
2018-06-21T09:00:38.328Z,4.60
2018-06-21T09:03:05.446Z,5.17
2018-06-21T09:05:32.688Z,4.93
2018-06-21T09:07:59.814Z,5.53
2018-06-21T09:10:26.967Z,4.83
2018-06-21T09:12:54.130Z,5.27
2018-06-21T09:15:21.332Z,5.73
2018-06-21T09:17:48.452Z,5.37
2018-06-21T09:20:15.640Z,5.53
2018-06-21T09:22:42.811Z,4.90
2018-06-21T09:25:09.937Z,5.17
2018-06-21T09:27:37.032Z,5.33
2018-06-21T09:30:04.186Z,4.97
2018-06-21T09:32:31.321Z,4.67
2018-06-21T09:34:58.495Z,5.03
2018-06-21T09:37:31.540Z,6.57
2018-06-21T09:40:04.373Z,5.17
2018-06-21T09:42:37.193Z,4.83
2018-06-21T09:45:04.360Z,5.37
2018-06-21T09:47:37.331Z,4.80
2018-06-21T09:50:04.483Z,5.20
2018-06-21T09:52:31.594Z,5.40
2018-06-21T09:54:58.727Z,4.53
2018-06-21T09:57:25.888Z,4.70
2018-06-21T09:59:53.062Z,4.90
2018-06-21T10:02:20.200Z,5.13
2018-06-21T10:04:47.361Z,5.03
2018-06-21T10:07:14.504Z,4.63
2018-06-21T10:09:41.612Z,4.43
2018-06-21T10:12:08.767Z,5.30
2018-06-21T10:14:35.876Z,5.27
2018-06-21T10:17:05.699Z,4.57
2018-06-21T10:19:32.846Z,4.63
2018-06-21T10:21:59.968Z,4.63
2018-06-21T10:24:27.112Z,6.13
2018-06-21T10:26:54.251Z,4.60
2018-06-21T10:29:21.453Z,4.40
2018-06-21T10:31:48.560Z,4.73
2018-06-21T10:34:15.719Z,4.90
2018-06-21T10:36:42.844Z,4.10
2018-06-21T10:39:11.281Z,4.20
2018-06-21T10:41:38.387Z,4.47
2018-06-21T10:44:05.578Z,4.73
2018-06-21T10:46:32.903Z,4.70
2018-06-21T10:49:00.057Z,4.90
2018-06-21T10:51:27.322Z,4.07
2018-06-21T10:53:54.527Z,3.80
2018-06-21T10:56:21.643Z,4.63
2018-06-21T10:58:48.775Z,4.60
2018-06-21T11:01:15.868Z,4.37
2018-06-21T11:03:42.996Z,4.27
2018-06-21T11:06:10.217Z,4.10
2018-06-21T11:08:37.357Z,4.50
2018-06-21T11:11:04.543Z,4.80
2018-06-21T11:13:31.695Z,4.60
2018-06-21T11:15:58.848Z,4.70
2018-06-21T11:18:25.991Z,4.97
2018-06-21T11:20:53.187Z,4.60
2018-06-21T11:23:20.315Z,4.17
2018-06-21T11:25:47.398Z,4.60
2018-06-21T11:28:14.546Z,5.10
2018-06-21T11:30:41.578Z,4.63
2018-06-21T11:33:08.719Z,4.70
2018-06-21T11:35:35.768Z,4.43
2018-06-21T11:38:02.904Z,4.40
2018-06-21T11:40:30.033Z,4.57
2018-06-21T11:42:57.675Z,4.27
2018-06-21T11:45:24.811Z,4.03
2018-06-21T11:47:51.944Z,4.40
2018-06-21T11:50:19.052Z,4.67
2018-06-21T11:52:46.215Z,5.23
2018-06-21T11:55:13.359Z,5.37
2018-06-21T11:57:40.491Z,5.27
2018-06-21T12:00:07.671Z,6.00
2018-06-21T12:02:34.894Z,6.33
2018-06-21T12:05:02.036Z,6.30
2018-06-21T12:07:29.231Z,7.60
2018-06-21T12:09:56.264Z,6.77
2018-06-21T12:12:23.462Z,6.67
2018-06-21T12:14:50.746Z,6.80
2018-06-21T12:17:17.796Z,5.67
2018-06-21T12:19:44.927Z,5.60
2018-06-21T12:22:12.044Z,5.10
2018-06-21T12:24:39.208Z,5.43
2018-06-21T12:27:06.331Z,5.20
2018-06-21T12:29:33.466Z,5.77
2018-06-21T12:32:00.629Z,4.90
2018-06-21T12:34:27.774Z,4.90
2018-06-21T12:36:55.020Z,5.73
2018-06-21T12:39:22.203Z,4.53
2018-06-21T12:41:49.383Z,4.70
2018-06-21T12:44:16.507Z,5.37
2018-06-21T12:46:43.627Z,4.83
2018-06-21T12:49:10.687Z,4.57
2018-06-21T12:51:37.763Z,3.90
2018-06-21T12:54:06.788Z,7.43
2018-06-21T12:56:33.952Z,3.93
2018-06-21T12:59:01.020Z,4.20
2018-06-21T13:01:28.155Z,3.23
2018-06-21T13:03:55.363Z,3.67
2018-06-21T13:06:22.525Z,4.60
2018-06-21T13:09:01.256Z,3.40
2018-06-21T13:11:34.051Z,3.20
2018-06-21T13:14:06.834Z,2.90
2018-06-21T13:16:34.160Z,2.70
2018-06-21T13:19:01.308Z,2.70
2018-06-21T13:21:28.416Z,2.47
2018-06-21T13:23:55.554Z,2.73
2018-06-21T13:26:22.745Z,2.30
2018-06-21T13:28:49.894Z,2.23
2018-06-21T13:31:16.926Z,2.60
2018-06-21T13:33:44.009Z,2.00
2018-06-21T13:36:11.059Z,1.90
2018-06-21T13:38:38.156Z,1.60
2018-06-21T13:41:05.291Z,2.00
2018-06-21T13:43:32.327Z,2.03
2018-06-21T13:45:59.471Z,1.67
2018-06-21T13:48:26.527Z,2.93
2018-06-21T13:50:53.567Z,2.20
2018-06-21T13:53:20.710Z,1.80
2018-06-21T13:55:47.847Z,1.87
2018-06-21T13:58:14.997Z,2.00
2018-06-21T14:00:42.132Z,2.07
2018-06-21T14:03:09.227Z,2.03
2018-06-21T14:05:36.404Z,1.73
2018-06-21T14:08:04.160Z,2.20
2018-06-21T14:10:30.996Z,2.40
2018-06-21T14:12:58.121Z,2.70
2018-06-21T14:15:25.119Z,1.90
2018-06-21T14:17:52.272Z,2.60
2018-06-21T14:20:19.356Z,2.17
2018-06-21T14:22:46.423Z,2.10
2018-06-21T14:25:13.516Z,2.37
2018-06-21T14:27:40.585Z,2.47
2018-06-21T14:30:07.897Z,2.27
2018-06-21T14:32:34.948Z,2.50
2018-06-21T14:35:02.000Z,2.30
2018-06-21T14:37:29.136Z,2.40
2018-06-21T14:39:56.183Z,2.00
2018-06-21T14:42:23.340Z,2.70
2018-06-21T14:44:50.347Z,2.00
2018-06-21T14:47:17.440Z,2.50
2018-06-21T14:49:44.507Z,1.93
2018-06-21T14:52:11.588Z,2.70
2018-06-21T14:54:38.636Z,2.40
2018-06-21T14:57:05.723Z,2.47
2018-06-21T14:59:32.780Z,2.70
2018-06-21T15:01:59.852Z,3.10
2018-06-21T15:04:26.868Z,3.20
2018-06-21T15:06:53.931Z,4.60
2018-06-21T15:09:21.060Z,4.00
2018-06-21T15:11:48.143Z,4.97
2018-06-21T15:14:15.190Z,5.57
2018-06-21T15:16:42.260Z,5.13
2018-06-21T15:19:09.356Z,6.20
2018-06-21T15:21:36.422Z,6.03
2018-06-21T15:24:03.529Z,6.37
2018-06-21T15:26:30.621Z,6.07
2018-06-21T15:28:57.682Z,5.97
2018-06-21T15:31:24.765Z,7.03
2018-06-21T15:33:51.935Z,7.40
2018-06-21T15:36:19.694Z,8.23
2018-06-21T15:38:46.810Z,7.90
2018-06-21T15:41:13.869Z,8.33
2018-06-21T15:43:40.993Z,7.00
2018-06-21T15:46:08.167Z,7.20
2018-06-21T15:48:35.212Z,6.43
2018-06-21T15:51:02.332Z,7.50
2018-06-21T15:53:29.393Z,6.60
2018-06-21T15:55:56.567Z,7.43
2018-06-21T15:58:27.132Z,6.20
2018-06-21T16:00:54.764Z,5.87
2018-06-21T16:03:21.944Z,5.60
2018-06-21T16:05:49.031Z,5.80
2018-06-21T16:08:16.171Z,5.70
2018-06-21T16:10:43.273Z,5.50
2018-06-21T16:13:13.550Z,5.67
2018-06-21T16:15:40.613Z,4.93
2018-06-21T16:18:07.711Z,4.90
2018-06-21T16:20:34.794Z,5.00
2018-06-21T16:23:01.852Z,5.40
2018-06-21T16:25:28.969Z,4.70
2018-06-21T16:27:55.987Z,5.30
2018-06-21T16:30:23.096Z,5.20
2018-06-21T16:32:50.259Z,4.53
2018-06-21T16:35:17.356Z,4.90
2018-06-21T16:37:44.463Z,5.43
2018-06-21T16:40:11.532Z,5.00
2018-06-21T16:42:38.583Z,5.00
2018-06-21T16:45:05.681Z,4.63
2018-06-21T16:47:32.771Z,4.53
2018-06-21T16:49:59.834Z,4.83
2018-06-21T16:52:26.912Z,4.40
2018-06-21T16:54:53.969Z,5.13
2018-06-21T16:57:21.114Z,4.07
2018-06-21T16:59:48.189Z,4.20
2018-06-21T17:02:15.310Z,3.73
2018-06-21T17:04:42.356Z,4.13
2018-06-21T17:07:09.427Z,3.37
2018-06-21T17:09:36.578Z,3.50
2018-06-21T17:12:03.608Z,3.43
2018-06-21T17:14:30.656Z,4.17
2018-06-21T17:16:57.755Z,3.30
2018-06-21T17:19:24.835Z,3.43
2018-06-21T17:21:51.911Z,3.80
2018-06-21T17:24:19.038Z,3.57
2018-06-21T17:26:46.122Z,2.73
2018-06-21T17:29:13.177Z,3.10
2018-06-21T17:31:43.549Z,3.27
2018-06-21T17:34:10.593Z,2.47
2018-06-21T17:36:37.731Z,2.70
2018-06-21T17:39:06.663Z,2.67
2018-06-21T17:44:24.279Z,2.33
2018-06-21T17:46:51.434Z,2.83
2018-06-21T17:49:18.649Z,2.80
2018-06-21T17:51:45.769Z,2.90
2018-06-21T17:54:12.846Z,3.23
2018-06-21T17:56:39.930Z,2.57
2018-06-21T17:59:07.306Z,3.27
2018-06-21T18:01:34.810Z,2.87
2018-06-21T18:04:01.850Z,2.17
2018-06-21T18:06:28.940Z,1.80
2018-06-21T18:08:56.024Z,1.90
2018-06-21T18:11:23.311Z,1.80
2018-06-21T18:13:50.446Z,1.40
2018-06-21T18:16:17.550Z,1.53
2018-06-21T18:18:44.688Z,1.10
2018-06-21T18:21:11.730Z,1.47
2018-06-21T18:23:38.817Z,1.87
2018-06-21T18:26:05.927Z,1.47
2018-06-21T18:28:33.095Z,1.07
2018-06-21T18:31:00.162Z,1.50
2018-06-21T18:33:27.281Z,1.20
2018-06-21T18:35:54.338Z,1.20
2018-06-21T18:38:21.472Z,1.40
2018-06-21T18:40:48.563Z,1.30
2018-06-21T18:43:15.662Z,1.47
2018-06-21T18:45:42.858Z,1.07
2018-06-21T18:48:10.083Z,1.10
2018-06-21T18:50:37.219Z,1.03
2018-06-21T18:53:04.381Z,1.20
2018-06-21T18:55:31.521Z,1.40
2018-06-21T18:57:58.726Z,1.33
2018-06-21T19:00:25.871Z,1.73
2018-06-21T19:02:53.014Z,1.10
2018-06-21T19:05:20.166Z,1.40
2018-06-21T19:07:51.935Z,1.30
2018-06-21T19:10:24.912Z,1.20
2018-06-21T19:12:52.058Z,1.40
2018-06-21T19:15:19.218Z,1.20
2018-06-21T19:17:46.341Z,1.70
2018-06-21T19:20:13.470Z,1.30
2018-06-21T19:22:40.618Z,1.53
2018-06-21T19:25:07.741Z,1.30
2018-06-21T19:27:34.897Z,0.97
2018-06-21T19:30:02.019Z,1.50
2018-06-21T19:32:29.185Z,0.90
2018-06-21T19:34:56.394Z,1.00
2018-06-21T19:37:23.500Z,1.27
2018-06-21T19:39:50.638Z,1.07
2018-06-21T19:42:17.759Z,1.40
2018-06-21T19:44:44.885Z,1.03
2018-06-21T19:47:12.035Z,0.80
2018-06-21T19:49:39.161Z,1.57
2018-06-21T19:52:06.323Z,1.60
2018-06-21T19:54:33.417Z,1.23
2018-06-21T19:57:00.507Z,0.90
2018-06-21T19:59:27.624Z,0.93
2018-06-21T20:01:54.763Z,1.27
2018-06-21T20:04:21.979Z,1.10
2018-06-21T20:06:49.146Z,1.07
2018-06-21T20:09:16.245Z,1.10
2018-06-21T20:11:43.377Z,2.60
2018-06-21T20:14:10.468Z,1.57
2018-06-21T20:16:37.597Z,1.70
2018-06-21T20:19:05.777Z,2.03
2018-06-21T20:21:32.937Z,1.70
2018-06-21T20:24:00.054Z,1.47
2018-06-21T20:26:27.214Z,1.77
2018-06-21T20:28:54.389Z,1.70
2018-06-21T20:31:21.551Z,1.40
2018-06-21T20:33:48.697Z,1.60
2018-06-21T20:36:16.308Z,1.63
2018-06-21T20:38:43.471Z,1.27
2018-06-21T20:41:11.354Z,1.47
2018-06-21T20:43:38.550Z,1.93
2018-06-21T20:46:05.930Z,1.67
2018-06-21T20:48:33.082Z,1.67
2018-06-21T20:51:00.185Z,1.33
2018-06-21T20:53:27.330Z,1.10
2018-06-21T20:55:54.431Z,1.47
2018-06-21T20:58:21.639Z,1.53
2018-06-21T21:00:48.944Z,1.17
2018-06-21T21:03:16.108Z,1.20
2018-06-21T21:05:43.251Z,1.20
2018-06-21T21:08:10.357Z,1.33
2018-06-21T21:10:37.490Z,1.23
2018-06-21T21:13:04.601Z,1.13
2018-06-21T21:15:31.764Z,1.20
2018-06-21T21:17:58.888Z,1.30
2018-06-21T21:23:00.047Z,1.20
2018-06-21T21:25:27.157Z,1.37
2018-06-21T21:27:54.294Z,1.20
2018-06-21T21:30:21.432Z,1.20
2018-06-21T21:32:48.549Z,1.07
2018-06-21T21:35:15.669Z,1.00
2018-06-21T21:37:42.814Z,1.47
2018-06-21T21:40:09.950Z,1.03
2018-06-21T21:42:37.918Z,0.90
2018-06-21T21:45:05.063Z,1.10
2018-06-21T21:47:32.182Z,1.10
2018-06-21T21:49:59.290Z,1.37
2018-06-21T21:52:26.426Z,1.13
2018-06-21T21:54:53.577Z,2.40
2018-06-21T21:57:20.742Z,1.97
2018-06-21T21:59:48.473Z,1.30
2018-06-21T22:02:16.330Z,1.27
2018-06-21T22:04:43.851Z,1.00
2018-06-21T22:07:10.992Z,1.13
2018-06-21T22:09:38.128Z,1.10
2018-06-21T22:12:05.235Z,1.10
2018-06-21T22:14:32.420Z,1.10
2018-06-21T22:16:59.513Z,0.80
2018-06-21T22:19:26.598Z,1.40
2018-06-21T22:21:53.778Z,1.23
2018-06-21T22:24:20.927Z,0.77
2018-06-21T22:26:48.110Z,1.20
2018-06-21T22:29:15.273Z,1.30
2018-06-21T22:31:42.426Z,1.00
2018-06-21T22:34:09.584Z,1.00
2018-06-21T22:36:36.713Z,1.30
2018-06-21T22:39:05.523Z,1.03
2018-06-21T22:41:32.662Z,0.83
2018-06-21T22:43:59.793Z,0.90
2018-06-21T22:46:26.885Z,0.93
2018-06-21T22:48:54.046Z,1.07
2018-06-21T22:51:21.178Z,0.80
2018-06-21T22:53:48.325Z,1.40
2018-06-21T22:56:15.417Z,0.90
2018-06-21T22:58:42.558Z,0.77
2018-06-21T23:01:09.713Z,1.27
2018-06-21T23:03:36.882Z,1.30
2018-06-21T23:06:04.017Z,0.97
2018-06-21T23:08:31.174Z,0.90
2018-06-21T23:10:58.301Z,1.00
2018-06-21T23:13:25.428Z,1.10
2018-06-21T23:15:52.587Z,1.00
2018-06-21T23:18:25.443Z,1.20
2018-06-21T23:20:52.735Z,1.17
2018-06-21T23:23:19.876Z,1.47
2018-06-21T23:25:46.989Z,1.07
2018-06-21T23:28:14.176Z,1.73
2018-06-21T23:30:41.332Z,1.40
2018-06-21T23:33:09.269Z,2.17
2018-06-21T23:35:36.397Z,1.27
2018-06-21T23:38:03.501Z,1.30
2018-06-21T23:40:30.710Z,1.27
2018-06-21T23:42:57.841Z,1.10
2018-06-21T23:45:24.936Z,1.17
2018-06-21T23:47:52.112Z,1.10
2018-06-21T23:50:19.267Z,1.10
2018-06-21T23:52:46.375Z,1.17
2018-06-21T23:55:13.535Z,1.50
